sensor_id;sensor_type;location;lat;lon;timestamp;pressure;altitude;pressure_sealevel;temperature;humidity
35806;BME280;21925;44.608;11.580;2023-02-04T00:01:07;102112.50;;;6.95;98.83
35806;BME280;21925;44.608;11.580;2023-02-04T00:03:32;102114.25;;;7.09;100.00
35806;BME280;21925;44.608;11.580;2023-02-04T00:05:58;102097.38;;;7.49;96.92
35806;BME280;21925;44.608;11.580;2023-02-04T00:08:23;102090.00;;;7.49;98.14
35806;BME280;21925;44.608;11.580;2023-02-04T00:10:49;102089.34;;;7.39;100.00
35806;BME280;21925;44.608;11.580;2023-02-04T00:13:15;102098.69;;;7.51;99.21
35806;BME280;21925;44.608;11.580;2023-02-04T00:15:40;102059.91;;;7.17;100.00
35806;BME280;21925;44.608;11.580;2023-02-04T00:18:06;102061.66;;;7.45;98.87
35806;BME280;21925;44.608;11.580;2023-02-04T00:20:32;102067.72;;;7.61;97.98
35806;BME280;21925;44.608;11.580;2023-02-04T00:22:58;102067.94;;;7.64;99.22
35806;BME280;21925;44.608;11.580;2023-02-04T00:25:23;102051.75;;;7.86;100.00
35806;BME280;21925;44.608;11.580;2023-02-04T00:27:49;102066.34;;;7.45;100.00
35806;BME280;21925;44.608;11.580;2023-02-04T00:30:14;102042.44;;;7.55;100.00
35806;BME280;21925;44.608;11.580;2023-02-04T00:32:40;102056.16;;;8.19;100.00
35806;BME280;21925;44.608;11.580;2023-02-04T00:35:06;102048.13;;;8.54;100.00
35806;BME280;21925;44.608;11.580;2023-02-04T00:37:32;102045.59;;;8.58;100.00
35806;BME280;21925;44.608;11.580;2023-02-04T00:39:57;102041.97;;;8.89;100.00
35806;BME280;21925;44.608;11.580;2023-02-04T00:42:23;102037.09;;;9.13;100.00
35806;BME280;21925;44.608;11.580;2023-02-04T00:44:48;102040.97;;;9.47;100.00
35806;BME280;21925;44.608;11.580;2023-02-04T00:47:14;102040.63;;;9.62;100.00
35806;BME280;21925;44.608;11.580;2023-02-04T00:49:39;102033.53;;;9.61;100.00
35806;BME280;21925;44.608;11.580;2023-02-04T00:52:05;102019.03;;;9.60;100.00
35806;BME280;21925;44.608;11.580;2023-02-04T00:54:30;102031.06;;;9.73;100.00
35806;BME280;21925;44.608;11.580;2023-02-04T00:56:56;102029.81;;;9.79;99.91
35806;BME280;21925;44.608;11.580;2023-02-04T00:59:22;102036.50;;;9.51;99.62
35806;BME280;21925;44.608;11.580;2023-02-04T01:01:47;102024.63;;;9.55;100.00
35806;BME280;21925;44.608;11.580;2023-02-04T01:04:13;102016.28;;;9.25;100.00
35806;BME280;21925;44.608;11.580;2023-02-04T01:06:39;102030.59;;;9.22;100.00
35806;BME280;21925;44.608;11.580;2023-02-04T01:09:05;102032.97;;;9.37;99.83
35806;BME280;21925;44.608;11.580;2023-02-04T01:11:31;102024.25;;;9.00;98.54
35806;BME280;21925;44.608;11.580;2023-02-04T01:13:57;102029.09;;;9.16;98.61
35806;BME280;21925;44.608;11.580;2023-02-04T01:16:22;102039.94;;;8.94;97.81
35806;BME280;21925;44.608;11.580;2023-02-04T01:18:48;102025.31;;;9.26;95.49
35806;BME280;21925;44.608;11.580;2023-02-04T01:21:14;102034.88;;;8.88;97.29
35806;BME280;21925;44.608;11.580;2023-02-04T01:23:41;102025.06;;;8.73;99.20
35806;BME280;21925;44.608;11.580;2023-02-04T01:26:07;102015.41;;;8.89;100.00
35806;BME280;21925;44.608;11.580;2023-02-04T01:28:32;102032.47;;;9.00;100.00
35806;BME280;21925;44.608;11.580;2023-02-04T01:30:58;102022.09;;;9.10;100.00
35806;BME280;21925;44.608;11.580;2023-02-04T01:33:24;102010.50;;;9.27;100.00
35806;BME280;21925;44.608;11.580;2023-02-04T01:35:49;102005.38;;;9.47;100.00
35806;BME280;21925;44.608;11.580;2023-02-04T01:38:15;102006.16;;;9.61;100.00
35806;BME280;21925;44.608;11.580;2023-02-04T01:40:41;102000.94;;;9.73;100.00
35806;BME280;21925;44.608;11.580;2023-02-04T01:43:07;101992.19;;;9.71;100.00
35806;BME280;21925;44.608;11.580;2023-02-04T01:45:33;102002.47;;;9.65;100.00
35806;BME280;21925;44.608;11.580;2023-02-04T01:48:02;102003.47;;;9.48;100.00
35806;BME280;21925;44.608;11.580;2023-02-04T01:50:28;102011.38;;;9.49;100.00
35806;BME280;21925;44.608;11.580;2023-02-04T01:52:54;102013.16;;;9.32;100.00
35806;BME280;21925;44.608;11.580;2023-02-04T01:55:24;102010.84;;;9.47;100.00
35806;BME280;21925;44.608;11.580;2023-02-04T01:57:50;102006.69;;;9.49;99.28
35806;BME280;21925;44.608;11.580;2023-02-04T02:00:31;102007.88;;;9.79;96.81
35806;BME280;21925;44.608;11.580;2023-02-04T02:02:58;102004.03;;;9.58;95.33
35806;BME280;21925;44.608;11.580;2023-02-04T02:05:43;101998.19;;;9.73;94.22
35806;BME280;21925;44.608;11.580;2023-02-04T02:08:10;102003.16;;;9.49;95.20
35806;BME280;21925;44.608;11.580;2023-02-04T02:10:38;102008.69;;;9.22;96.67
35806;BME280;21925;44.608;11.580;2023-02-04T02:13:06;102000.03;;;8.93;98.17
35806;BME280;21925;44.608;11.580;2023-02-04T02:15:37;101990.69;;;9.08;100.00
35806;BME280;21925;44.608;11.580;2023-02-04T02:18:04;101989.16;;;9.02;100.00
35806;BME280;21925;44.608;11.580;2023-02-04T02:20:30;101980.56;;;9.08;100.00
35806;BME280;21925;44.608;11.580;2023-02-04T02:23:23;101996.19;;;9.08;100.00
35806;BME280;21925;44.608;11.580;2023-02-04T02:25:51;101999.50;;;9.05;100.00
35806;BME280;21925;44.608;11.580;2023-02-04T02:28:19;101987.84;;;9.13;100.00
35806;BME280;21925;44.608;11.580;2023-02-04T02:30:46;101996.34;;;9.25;100.00
35806;BME280;21925;44.608;11.580;2023-02-04T02:33:14;101985.28;;;9.30;100.00
35806;BME280;21925;44.608;11.580;2023-02-04T02:35:42;101971.66;;;9.38;100.00
35806;BME280;21925;44.608;11.580;2023-02-04T02:38:11;101959.44;;;9.22;100.00
35806;BME280;21925;44.608;11.580;2023-02-04T02:40:37;101953.34;;;9.25;100.00
35806;BME280;21925;44.608;11.580;2023-02-04T02:43:04;101955.72;;;9.40;100.00
35806;BME280;21925;44.608;11.580;2023-02-04T02:45:31;101955.84;;;9.35;100.00
35806;BME280;21925;44.608;11.580;2023-02-04T02:47:59;101965.75;;;9.45;100.00
35806;BME280;21925;44.608;11.580;2023-02-04T02:50:29;101976.75;;;9.31;100.00
35806;BME280;21925;44.608;11.580;2023-02-04T02:52:56;101960.31;;;9.31;100.00
35806;BME280;21925;44.608;11.580;2023-02-04T02:55:24;101939.66;;;9.25;100.00
35806;BME280;21925;44.608;11.580;2023-02-04T02:57:51;101950.84;;;9.37;100.00
35806;BME280;21925;44.608;11.580;2023-02-04T03:00:19;101956.78;;;9.31;100.00
35806;BME280;21925;44.608;11.580;2023-02-04T03:02:56;101965.91;;;9.26;100.00
35806;BME280;21925;44.608;11.580;2023-02-04T03:05:24;101953.13;;;9.35;100.00
35806;BME280;21925;44.608;11.580;2023-02-04T03:07:51;101950.47;;;9.08;100.00
35806;BME280;21925;44.608;11.580;2023-02-04T03:10:17;101942.94;;;9.14;100.00
35806;BME280;21925;44.608;11.580;2023-02-04T03:12:44;101944.44;;;8.71;100.00
35806;BME280;21925;44.608;11.580;2023-02-04T03:15:11;101947.38;;;8.74;100.00
35806;BME280;21925;44.608;11.580;2023-02-04T03:17:36;101934.22;;;8.50;100.00
35806;BME280;21925;44.608;11.580;2023-02-04T03:20:03;101937.47;;;8.25;100.00
35806;BME280;21925;44.608;11.580;2023-02-04T03:22:29;101950.84;;;8.67;100.00
35806;BME280;21925;44.608;11.580;2023-02-04T03:24:54;101937.59;;;8.47;100.00
35806;BME280;21925;44.608;11.580;2023-02-04T03:27:23;101963.59;;;7.54;100.00
35806;BME280;21925;44.608;11.580;2023-02-04T03:29:49;101954.09;;;7.83;100.00
35806;BME280;21925;44.608;11.580;2023-02-04T03:32:15;101969.72;;;7.46;100.00
35806;BME280;21925;44.608;11.580;2023-02-04T03:34:41;101960.41;;;7.65;100.00
35806;BME280;21925;44.608;11.580;2023-02-04T03:37:07;101973.38;;;7.73;100.00
35806;BME280;21925;44.608;11.580;2023-02-04T03:39:33;101955.31;;;7.90;100.00
35806;BME280;21925;44.608;11.580;2023-02-04T03:41:58;101956.53;;;7.98;100.00
35806;BME280;21925;44.608;11.580;2023-02-04T03:44:24;101926.34;;;7.44;100.00
35806;BME280;21925;44.608;11.580;2023-02-04T03:46:53;101952.59;;;8.04;100.00
35806;BME280;21925;44.608;11.580;2023-02-04T03:49:22;101943.91;;;8.02;100.00
35806;BME280;21925;44.608;11.580;2023-02-04T03:51:48;101954.31;;;8.32;100.00
35806;BME280;21925;44.608;11.580;2023-02-04T03:54:14;101943.84;;;8.34;100.00
35806;BME280;21925;44.608;11.580;2023-02-04T03:56:39;101937.16;;;8.53;100.00
35806;BME280;21925;44.608;11.580;2023-02-04T03:59:05;101940.28;;;8.73;100.00
35806;BME280;21925;44.608;11.580;2023-02-04T04:01:31;101936.88;;;8.68;100.00
35806;BME280;21925;44.608;11.580;2023-02-04T04:03:56;101928.94;;;8.80;100.00
35806;BME280;21925;44.608;11.580;2023-02-04T04:06:22;101908.31;;;8.74;100.00
35806;BME280;21925;44.608;11.580;2023-02-04T04:08:48;101924.44;;;8.97;100.00
35806;BME280;21925;44.608;11.580;2023-02-04T04:11:13;101920.00;;;9.01;100.00
35806;BME280;21925;44.608;11.580;2023-02-04T04:13:39;101930.53;;;8.94;100.00
35806;BME280;21925;44.608;11.580;2023-02-04T04:16:05;101916.53;;;8.61;100.00
35806;BME280;21925;44.608;11.580;2023-02-04T04:18:31;101921.06;;;8.65;100.00
35806;BME280;21925;44.608;11.580;2023-02-04T04:20:59;101918.34;;;8.65;100.00
35806;BME280;21925;44.608;11.580;2023-02-04T04:23:24;101923.81;;;8.38;100.00
35806;BME280;21925;44.608;11.580;2023-02-04T04:25:50;101925.56;;;8.48;100.00
35806;BME280;21925;44.608;11.580;2023-02-04T04:28:16;101932.63;;;8.49;100.00
35806;BME280;21925;44.608;11.580;2023-02-04T04:30:42;101938.28;;;8.25;100.00
35806;BME280;21925;44.608;11.580;2023-02-04T04:33:08;101933.44;;;8.36;100.00
35806;BME280;21925;44.608;11.580;2023-02-04T04:35:33;101931.28;;;8.73;100.00
35806;BME280;21925;44.608;11.580;2023-02-04T04:38:00;101947.84;;;9.03;100.00
35806;BME280;21925;44.608;11.580;2023-02-04T04:40:26;101957.59;;;9.31;100.00
35806;BME280;21925;44.608;11.580;2023-02-04T04:42:52;101945.78;;;9.44;100.00
35806;BME280;21925;44.608;11.580;2023-02-04T04:45:17;101958.75;;;9.52;100.00
35806;BME280;21925;44.608;11.580;2023-02-04T04:47:44;101966.19;;;9.82;99.41
35806;BME280;21925;44.608;11.580;2023-02-04T04:50:10;101965.44;;;9.90;94.39
35806;BME280;21925;44.608;11.580;2023-02-04T04:52:35;101988.91;;;9.82;93.81
35806;BME280;21925;44.608;11.580;2023-02-04T04:55:02;101957.09;;;9.73;92.10
35806;BME280;21925;44.608;11.580;2023-02-04T04:57:27;101962.53;;;9.64;90.62
35806;BME280;21925;44.608;11.580;2023-02-04T04:59:53;101966.06;;;9.43;96.58
35806;BME280;21925;44.608;11.580;2023-02-04T05:02:18;101957.47;;;9.36;99.34
35806;BME280;21925;44.608;11.580;2023-02-04T05:04:44;101937.09;;;9.07;100.00
35806;BME280;21925;44.608;11.580;2023-02-04T05:07:10;101954.47;;;9.24;100.00
35806;BME280;21925;44.608;11.580;2023-02-04T05:09:35;101942.25;;;9.08;100.00
35806;BME280;21925;44.608;11.580;2023-02-04T05:12:01;101953.88;;;8.78;100.00
35806;BME280;21925;44.608;11.580;2023-02-04T05:14:27;101957.38;;;8.92;100.00
35806;BME280;21925;44.608;11.580;2023-02-04T05:16:52;101941.13;;;8.61;100.00
35806;BME280;21925;44.608;11.580;2023-02-04T05:19:18;101943.69;;;9.06;100.00
35806;BME280;21925;44.608;11.580;2023-02-04T05:21:44;101938.03;;;9.02;100.00
35806;BME280;21925;44.608;11.580;2023-02-04T05:24:09;101916.94;;;9.03;100.00
35806;BME280;21925;44.608;11.580;2023-02-04T05:26:37;101947.09;;;9.25;100.00
35806;BME280;21925;44.608;11.580;2023-02-04T05:29:03;101936.69;;;9.35;100.00
35806;BME280;21925;44.608;11.580;2023-02-04T05:31:29;101960.59;;;9.43;100.00
35806;BME280;21925;44.608;11.580;2023-02-04T05:33:54;101958.28;;;9.37;100.00
35806;BME280;21925;44.608;11.580;2023-02-04T05:36:20;101965.09;;;9.26;100.00
35806;BME280;21925;44.608;11.580;2023-02-04T05:38:46;101948.59;;;8.69;99.89
35806;BME280;21925;44.608;11.580;2023-02-04T05:41:12;101956.84;;;8.10;100.00
35806;BME280;21925;44.608;11.580;2023-02-04T05:43:37;101966.72;;;8.24;100.00
35806;BME280;21925;44.608;11.580;2023-02-04T05:46:04;101962.94;;;8.07;100.00
35806;BME280;21925;44.608;11.580;2023-02-04T05:48:30;101974.28;;;8.14;100.00
35806;BME280;21925;44.608;11.580;2023-02-04T05:50:55;101970.06;;;8.35;100.00
35806;BME280;21925;44.608;11.580;2023-02-04T05:53:21;101988.31;;;8.66;100.00
35806;BME280;21925;44.608;11.580;2023-02-04T05:55:46;101990.69;;;9.08;100.00
35806;BME280;21925;44.608;11.580;2023-02-04T05:58:12;102000.56;;;9.31;96.57
35806;BME280;21925;44.608;11.580;2023-02-04T06:00:38;101992.56;;;8.85;96.89
35806;BME280;21925;44.608;11.580;2023-02-04T06:03:03;102001.97;;;8.53;98.83
35806;BME280;21925;44.608;11.580;2023-02-04T06:05:29;101983.75;;;8.75;99.03
35806;BME280;21925;44.608;11.580;2023-02-04T06:07:54;101983.09;;;9.05;92.95
35806;BME280;21925;44.608;11.580;2023-02-04T06:10:20;101985.63;;;9.01;89.60
35806;BME280;21925;44.608;11.580;2023-02-04T06:12:47;101983.22;;;9.00;89.82
35806;BME280;21925;44.608;11.580;2023-02-04T06:15:12;101998.19;;;8.22;94.99
35806;BME280;21925;44.608;11.580;2023-02-04T06:17:38;102001.94;;;8.26;97.32
35806;BME280;21925;44.608;11.580;2023-02-04T06:20:04;102000.94;;;8.22;96.89
35806;BME280;21925;44.608;11.580;2023-02-04T06:22:30;101998.84;;;8.59;92.29
35806;BME280;21925;44.608;11.580;2023-02-04T06:24:56;102009.50;;;8.15;95.81
35806;BME280;21925;44.608;11.580;2023-02-04T06:27:22;102001.44;;;8.37;92.54
35806;BME280;21925;44.608;11.580;2023-02-04T06:29:51;101971.19;;;8.34;90.76
35806;BME280;21925;44.608;11.580;2023-02-04T06:32:18;101967.19;;;8.13;89.30
35806;BME280;21925;44.608;11.580;2023-02-04T06:34:44;101962.41;;;8.05;89.29
35806;BME280;21925;44.608;11.580;2023-02-04T06:37:10;101962.28;;;8.15;88.64
35806;BME280;21925;44.608;11.580;2023-02-04T06:39:37;101993.16;;;7.97;88.88
35806;BME280;21925;44.608;11.580;2023-02-04T06:42:03;102032.53;;;7.22;96.16
35806;BME280;21925;44.608;11.580;2023-02-04T06:44:29;102028.94;;;7.27;96.99
35806;BME280;21925;44.608;11.580;2023-02-04T06:46:54;102055.75;;;7.02;100.00
35806;BME280;21925;44.608;11.580;2023-02-04T06:49:20;102056.44;;;6.89;100.00
35806;BME280;21925;44.608;11.580;2023-02-04T06:51:45;102078.22;;;6.89;100.00
35806;BME280;21925;44.608;11.580;2023-02-04T06:54:13;102078.22;;;6.89;100.00
35806;BME280;21925;44.608;11.580;2023-02-04T06:56:38;102065.28;;;7.22;100.00
35806;BME280;21925;44.608;11.580;2023-02-04T06:59:04;102052.81;;;6.93;100.00
35806;BME280;21925;44.608;11.580;2023-02-04T07:01:30;102072.97;;;6.74;100.00
35806;BME280;21925;44.608;11.580;2023-02-04T07:03:56;102029.25;;;6.84;100.00
35806;BME280;21925;44.608;11.580;2023-02-04T07:06:21;102083.66;;;6.94;100.00
35806;BME280;21925;44.608;11.580;2023-02-04T07:08:47;102079.19;;;7.03;100.00
35806;BME280;21925;44.608;11.580;2023-02-04T07:11:14;102062.47;;;7.27;100.00
35806;BME280;21925;44.608;11.580;2023-02-04T07:13:40;102085.03;;;6.68;100.00
35806;BME280;21925;44.608;11.580;2023-02-04T07:16:06;102073.94;;;6.83;100.00
35806;BME280;21925;44.608;11.580;2023-02-04T07:18:32;102045.81;;;7.47;100.00
35806;BME280;21925;44.608;11.580;2023-02-04T07:20:58;102067.47;;;7.20;100.00
35806;BME280;21925;44.608;11.580;2023-02-04T07:23:23;102068.31;;;7.21;100.00
35806;BME280;21925;44.608;11.580;2023-02-04T07:25:50;102070.88;;;7.86;98.27
35806;BME280;21925;44.608;11.580;2023-02-04T07:28:18;102085.22;;;7.60;97.26
35806;BME280;21925;44.608;11.580;2023-02-04T07:30:45;102052.94;;;7.07;100.00
35806;BME280;21925;44.608;11.580;2023-02-04T07:33:10;102096.56;;;7.85;100.00
35806;BME280;21925;44.608;11.580;2023-02-04T07:35:36;102143.50;;;7.04;100.00
35806;BME280;21925;44.608;11.580;2023-02-04T07:38:08;102065.69;;;6.88;100.00
35806;BME280;21925;44.608;11.580;2023-02-04T07:40:34;102110.66;;;7.13;100.00
35806;BME280;21925;44.608;11.580;2023-02-04T07:42:59;102123.34;;;7.23;100.00
35806;BME280;21925;44.608;11.580;2023-02-04T07:45:26;102110.78;;;7.04;100.00
35806;BME280;21925;44.608;11.580;2023-02-04T07:47:52;102106.88;;;7.51;100.00
35806;BME280;21925;44.608;11.580;2023-02-04T07:50:18;102103.19;;;8.16;100.00
35806;BME280;21925;44.608;11.580;2023-02-04T07:52:43;102125.84;;;7.61;100.00
35806;BME280;21925;44.608;11.580;2023-02-04T07:55:09;102128.22;;;7.49;100.00
35806;BME280;21925;44.608;11.580;2023-02-04T07:57:34;102076.25;;;8.09;99.99
35806;BME280;21925;44.608;11.580;2023-02-04T08:00:00;102118.09;;;8.05;97.53
35806;BME280;21925;44.608;11.580;2023-02-04T08:02:26;102163.69;;;7.49;100.00
35806;BME280;21925;44.608;11.580;2023-02-04T08:04:51;102091.69;;;8.19;99.74
35806;BME280;21925;44.608;11.580;2023-02-04T08:07:17;102130.22;;;7.99;98.99
35806;BME280;21925;44.608;11.580;2023-02-04T08:09:43;102116.63;;;7.94;100.00
35806;BME280;21925;44.608;11.580;2023-02-04T08:12:08;102129.59;;;8.71;98.09
35806;BME280;21925;44.608;11.580;2023-02-04T08:14:34;102142.56;;;8.78;95.64
35806;BME280;21925;44.608;11.580;2023-02-04T08:17:02;102121.81;;;9.04;93.95
35806;BME280;21925;44.608;11.580;2023-02-04T08:19:29;102132.53;;;9.41;91.00
35806;BME280;21925;44.608;11.580;2023-02-04T08:21:54;102138.13;;;9.09;97.54
35806;BME280;21925;44.608;11.580;2023-02-04T08:24:23;102143.19;;;9.29;99.16
35806;BME280;21925;44.608;11.580;2023-02-04T08:26:52;102134.28;;;9.10;99.96
35806;BME280;21925;44.608;11.580;2023-02-04T08:29:18;102121.38;;;9.51;100.00
35806;BME280;21925;44.608;11.580;2023-02-04T08:31:44;102137.50;;;9.88;100.00
35806;BME280;21925;44.608;11.580;2023-02-04T08:34:09;102143.06;;;10.10;100.00
35806;BME280;21925;44.608;11.580;2023-02-04T08:36:35;102153.16;;;10.44;100.00
35806;BME280;21925;44.608;11.580;2023-02-04T08:39:00;102159.47;;;10.45;99.81
35806;BME280;21925;44.608;11.580;2023-02-04T08:41:26;102155.88;;;10.66;98.83
35806;BME280;21925;44.608;11.580;2023-02-04T08:43:52;102147.16;;;10.95;99.46
35806;BME280;21925;44.608;11.580;2023-02-04T08:46:17;102154.22;;;11.17;98.02
35806;BME280;21925;44.608;11.580;2023-02-04T08:48:43;102159.41;;;11.19;98.19
35806;BME280;21925;44.608;11.580;2023-02-04T08:51:08;102159.44;;;11.66;97.82
35806;BME280;21925;44.608;11.580;2023-02-04T08:53:34;102151.03;;;11.80;94.78
35806;BME280;21925;44.608;11.580;2023-02-04T08:56:00;102154.47;;;12.10;93.86
35806;BME280;21925;44.608;11.580;2023-02-04T08:58:25;102147.66;;;12.33;93.28
35806;BME280;21925;44.608;11.580;2023-02-04T09:00:51;102136.59;;;12.67;91.03
35806;BME280;21925;44.608;11.580;2023-02-04T09:03:16;102157.00;;;12.66;87.74
35806;BME280;21925;44.608;11.580;2023-02-04T09:05:42;102137.47;;;12.17;87.95
35806;BME280;21925;44.608;11.580;2023-02-04T09:08:08;102138.63;;;11.99;90.42
35806;BME280;21925;44.608;11.580;2023-02-04T09:10:33;102137.91;;;12.61;88.57
35806;BME280;21925;44.608;11.580;2023-02-04T09:13:01;102139.06;;;12.35;88.93
35806;BME280;21925;44.608;11.580;2023-02-04T09:15:27;102148.28;;;12.47;90.05
35806;BME280;21925;44.608;11.580;2023-02-04T09:17:54;102137.63;;;12.46;90.82
35806;BME280;21925;44.608;11.580;2023-02-04T09:20:29;102143.69;;;12.68;89.91
35806;BME280;21925;44.608;11.580;2023-02-04T09:22:54;102141.66;;;12.48;92.37
35806;BME280;21925;44.608;11.580;2023-02-04T09:25:20;102149.22;;;12.68;93.39
35806;BME280;21925;44.608;11.580;2023-02-04T09:27:46;102144.75;;;12.21;93.84
35806;BME280;21925;44.608;11.580;2023-02-04T09:30:12;102122.28;;;11.86;94.60
35806;BME280;21925;44.608;11.580;2023-02-04T09:32:37;102125.66;;;11.83;95.36
35806;BME280;21925;44.608;11.580;2023-02-04T09:35:03;102129.88;;;12.05;97.04
35806;BME280;21925;44.608;11.580;2023-02-04T09:37:29;102133.41;;;12.40;97.67
35806;BME280;21925;44.608;11.580;2023-02-04T09:39:57;102144.72;;;12.55;95.46
35806;BME280;21925;44.608;11.580;2023-02-04T09:42:24;102149.84;;;12.73;92.02
35806;BME280;21925;44.608;11.580;2023-02-04T09:44:50;102132.84;;;13.26;91.08
35806;BME280;21925;44.608;11.580;2023-02-04T09:47:18;102145.44;;;12.98;89.52
35806;BME280;21925;44.608;11.580;2023-02-04T09:49:46;102136.84;;;13.08;90.48
35806;BME280;21925;44.608;11.580;2023-02-04T09:52:13;102124.91;;;12.95;90.79
35806;BME280;21925;44.608;11.580;2023-02-04T09:54:41;102134.28;;;13.32;90.21
35806;BME280;21925;44.608;11.580;2023-02-04T09:57:15;102123.06;;;13.37;86.97
35806;BME280;21925;44.608;11.580;2023-02-04T09:59:42;102124.22;;;13.64;86.11
35806;BME280;21925;44.608;11.580;2023-02-04T10:02:23;102118.16;;;13.91;86.63
35806;BME280;21925;44.608;11.580;2023-02-04T10:04:55;102118.41;;;14.39;83.23
35806;BME280;21925;44.608;11.580;2023-02-04T10:07:22;102110.84;;;14.36;80.83
35806;BME280;21925;44.608;11.580;2023-02-04T10:09:51;102125.44;;;14.69;81.23
35806;BME280;21925;44.608;11.580;2023-02-04T10:12:19;102116.94;;;14.74;79.40
35806;BME280;21925;44.608;11.580;2023-02-04T10:14:45;102110.13;;;14.71;81.10
35806;BME280;21925;44.608;11.580;2023-02-04T10:17:12;102118.06;;;14.73;81.59
35806;BME280;21925;44.608;11.580;2023-02-04T10:19:39;102112.00;;;14.91;79.36
35806;BME280;21925;44.608;11.580;2023-02-04T10:22:14;102118.13;;;15.20;79.42
35806;BME280;21925;44.608;11.580;2023-02-04T10:24:41;102118.66;;;14.78;78.35
35806;BME280;21925;44.608;11.580;2023-02-04T10:27:08;102115.91;;;14.78;81.69
35806;BME280;21925;44.608;11.580;2023-02-04T10:29:34;102120.56;;;14.98;79.94
35806;BME280;21925;44.608;11.580;2023-02-04T10:32:00;102134.94;;;15.15;80.93
35806;BME280;21925;44.608;11.580;2023-02-04T10:34:34;102126.66;;;15.51;77.34
35806;BME280;21925;44.608;11.580;2023-02-04T10:37:20;102104.78;;;16.09;76.59
35806;BME280;21925;44.608;11.580;2023-02-04T10:39:46;102113.28;;;15.77;75.78
35806;BME280;21925;44.608;11.580;2023-02-04T10:42:30;102111.66;;;16.70;71.98
35806;BME280;21925;44.608;11.580;2023-02-04T10:44:56;102119.34;;;16.61;70.14
35806;BME280;21925;44.608;11.580;2023-02-04T10:47:27;102108.16;;;16.58;70.97
35806;BME280;21925;44.608;11.580;2023-02-04T10:49:59;102109.41;;;16.60;69.86
35806;BME280;21925;44.608;11.580;2023-02-04T10:52:35;102092.47;;;17.23;76.13
35806;BME280;21925;44.608;11.580;2023-02-04T10:55:05;102087.56;;;17.48;69.54
35806;BME280;21925;44.608;11.580;2023-02-04T10:57:41;102096.16;;;16.81;72.05
35806;BME280;21925;44.608;11.580;2023-02-04T11:02:44;102093.75;;;17.94;73.54
35806;BME280;21925;44.608;11.580;2023-02-04T11:05:15;102095.88;;;17.82;68.37
35806;BME280;21925;44.608;11.580;2023-02-04T11:07:42;102091.06;;;17.98;65.93
35806;BME280;21925;44.608;11.580;2023-02-04T11:10:13;102088.22;;;18.13;74.60
35806;BME280;21925;44.608;11.580;2023-02-04T11:15:45;102090.50;;;17.39;69.18
35806;BME280;21925;44.608;11.580;2023-02-04T11:18:26;102089.00;;;17.76;67.63
35806;BME280;21925;44.608;11.580;2023-02-04T11:20:56;102078.00;;;16.99;66.84
35806;BME280;21925;44.608;11.580;2023-02-04T11:26:11;102068.88;;;17.29;67.97
35806;BME280;21925;44.608;11.580;2023-02-04T11:28:50;102069.41;;;17.19;67.37
35806;BME280;21925;44.608;11.580;2023-02-04T11:33:45;102053.16;;;17.33;66.41
35806;BME280;21925;44.608;11.580;2023-02-04T11:36:13;102045.34;;;17.92;68.19
35806;BME280;21925;44.608;11.580;2023-02-04T11:38:44;102059.34;;;17.80;65.47
35806;BME280;21925;44.608;11.580;2023-02-04T11:41:17;102039.63;;;18.04;65.13
35806;BME280;21925;44.608;11.580;2023-02-04T11:43:44;102037.69;;;18.04;63.38
35806;BME280;21925;44.608;11.580;2023-02-04T11:46:15;102047.38;;;18.14;63.92
35806;BME280;21925;44.608;11.580;2023-02-04T11:48:41;102040.22;;;17.94;62.16
35806;BME280;21925;44.608;11.580;2023-02-04T11:51:14;102023.44;;;17.87;60.94
35806;BME280;21925;44.608;11.580;2023-02-04T11:53:41;102059.47;;;18.21;61.82
35806;BME280;21925;44.608;11.580;2023-02-04T11:56:17;102048.34;;;18.85;64.98
35806;BME280;21925;44.608;11.580;2023-02-04T11:58:44;102038.41;;;19.32;59.48
35806;BME280;21925;44.608;11.580;2023-02-04T12:01:22;102040.25;;;18.76;59.86
35806;BME280;21925;44.608;11.580;2023-02-04T12:03:55;101972.59;;;18.21;59.98
35806;BME280;21925;44.608;11.580;2023-02-04T12:06:23;102065.41;;;18.61;58.44
35806;BME280;21925;44.608;11.580;2023-02-04T12:08:49;101969.22;;;18.31;60.39
35806;BME280;21925;44.608;11.580;2023-02-04T12:11:27;102003.78;;;18.55;59.89
35806;BME280;21925;44.608;11.580;2023-02-04T12:13:56;101997.25;;;18.26;60.82
35806;BME280;21925;44.608;11.580;2023-02-04T12:16:26;101977.81;;;18.26;60.09
35806;BME280;21925;44.608;11.580;2023-02-04T12:18:51;102001.00;;;18.78;59.24
35806;BME280;21925;44.608;11.580;2023-02-04T12:21:18;101939.63;;;18.41;60.14
35806;BME280;21925;44.608;11.580;2023-02-04T12:23:44;102044.03;;;18.87;58.75
35806;BME280;21925;44.608;11.580;2023-02-04T12:26:10;102044.84;;;19.10;59.16
35806;BME280;21925;44.608;11.580;2023-02-04T12:28:36;102016.75;;;18.70;58.65
35806;BME280;21925;44.608;11.580;2023-02-04T12:31:03;102001.06;;;18.59;59.40
35806;BME280;21925;44.608;11.580;2023-02-04T12:33:28;101937.19;;;18.85;59.73
35806;BME280;21925;44.608;11.580;2023-02-04T12:35:54;102048.53;;;18.95;58.12
35806;BME280;21925;44.608;11.580;2023-02-04T12:38:20;101979.63;;;18.59;57.73
35806;BME280;21925;44.608;11.580;2023-02-04T12:40:46;101931.19;;;18.83;59.43
35806;BME280;21925;44.608;11.580;2023-02-04T12:43:12;102042.31;;;19.53;59.59
35806;BME280;21925;44.608;11.580;2023-02-04T12:45:37;101958.84;;;19.24;60.21
35806;BME280;21925;44.608;11.580;2023-02-04T12:48:05;102006.69;;;19.36;58.95
35806;BME280;21925;44.608;11.580;2023-02-04T12:50:31;102008.22;;;19.60;59.66
35806;BME280;21925;44.608;11.580;2023-02-04T12:52:58;102004.19;;;19.54;58.63